createdAt,value
2023-04-16T00:02:15.682Z,15.25
2023-04-16T00:04:44.792Z,15.93
2023-04-16T00:07:11.761Z,14.05
2023-04-16T00:09:38.397Z,13.77
2023-04-16T00:12:06.232Z,14.95
2023-04-16T00:14:33.042Z,15.75
2023-04-16T00:16:59.745Z,14.73
2023-04-16T00:19:26.476Z,16.50
2023-04-16T00:21:56.097Z,15.00
2023-04-16T00:24:22.822Z,15.93
2023-04-16T00:26:51.991Z,14.85
2023-04-16T00:29:18.888Z,13.63
2023-04-16T00:31:45.698Z,15.25
2023-04-16T00:34:12.327Z,17.17
2023-04-16T00:36:39.038Z,14.25
2023-04-16T00:39:05.640Z,14.43
2023-04-16T00:41:32.247Z,15.38
2023-04-16T00:43:58.866Z,16.77
2023-04-16T00:46:26.096Z,18.02
2023-04-16T00:48:55.896Z,15.43
2023-04-16T00:51:22.936Z,17.25
2023-04-16T00:53:50.455Z,15.80
2023-04-16T00:56:17.969Z,16.67
2023-04-16T00:58:44.988Z,14.88
2023-04-16T01:01:11.788Z,15.70
2023-04-16T01:03:40.938Z,15.60
2023-04-16T01:06:08.228Z,13.80
2023-04-16T01:08:35.206Z,14.13
2023-04-16T01:11:02.241Z,15.55
2023-04-16T01:13:29.443Z,16.88
2023-04-16T01:15:56.228Z,16.25
2023-04-16T01:18:23.991Z,14.50
2023-04-16T01:20:51.267Z,15.68
2023-04-16T01:23:18.727Z,16.30
2023-04-16T01:25:48.465Z,13.25
2023-04-16T01:28:17.314Z,14.55
2023-04-16T01:30:44.306Z,13.75
2023-04-16T01:33:11.724Z,14.25
2023-04-16T01:35:39.025Z,20.13
2023-04-16T01:38:08.878Z,13.48
2023-04-16T01:40:36.541Z,14.77
2023-04-16T01:43:03.542Z,17.17
2023-04-16T01:45:32.217Z,12.07
2023-04-16T01:47:59.052Z,15.32
2023-04-16T01:50:25.897Z,13.40
2023-04-16T01:52:52.638Z,14.02
2023-04-16T01:55:21.853Z,14.18
2023-04-16T01:57:51.157Z,13.52
2023-04-16T02:00:17.886Z,16.02
2023-04-16T02:02:44.703Z,13.05
2023-04-16T02:05:11.484Z,13.95
2023-04-16T02:07:38.170Z,16.30
2023-04-16T02:10:08.845Z,13.27
2023-04-16T02:12:35.545Z,16.45
2023-04-16T02:15:05.120Z,13.90
2023-04-16T02:17:31.881Z,14.15
2023-04-16T02:19:58.676Z,13.93
2023-04-16T02:22:25.389Z,14.13
2023-04-16T02:24:52.100Z,12.15
2023-04-16T02:27:18.701Z,14.85
2023-04-16T02:29:47.541Z,13.90
2023-04-16T02:32:14.234Z,14.60
2023-04-16T02:34:41.622Z,14.52
2023-04-16T02:37:08.275Z,14.93
2023-04-16T02:39:35.016Z,12.48
2023-04-16T02:42:03.816Z,13.48
2023-04-16T02:44:30.575Z,13.40
2023-04-16T02:46:57.260Z,11.73
2023-04-16T02:49:26.524Z,12.65
2023-04-16T02:51:53.148Z,14.13
2023-04-16T02:54:19.823Z,13.07
2023-04-16T02:56:46.435Z,12.88
2023-04-16T02:59:15.812Z,13.30
2023-04-16T03:01:42.556Z,15.25
2023-04-16T03:04:09.430Z,14.75
2023-04-16T03:06:36.135Z,14.20
2023-04-16T03:09:02.884Z,15.27
2023-04-16T03:11:32.082Z,13.30
2023-04-16T03:13:58.734Z,15.68
2023-04-16T03:16:25.521Z,16.13
2023-04-16T03:18:52.213Z,16.23
2023-04-16T03:21:19.165Z,16.38
2023-04-16T03:23:45.775Z,14.40
2023-04-16T03:26:12.439Z,16.00
2023-04-16T03:28:39.077Z,17.23
2023-04-16T03:31:06.085Z,17.25
2023-04-16T03:33:37.476Z,16.52
2023-04-16T03:36:04.383Z,16.73
2023-04-16T03:38:31.149Z,17.02
2023-04-16T03:40:57.849Z,17.35
2023-04-16T03:43:24.505Z,15.40
2023-04-16T03:45:51.317Z,17.65
2023-04-16T03:48:20.215Z,15.93
2023-04-16T03:50:49.550Z,17.52
2023-04-16T03:53:16.303Z,15.60
2023-04-16T03:55:43.147Z,19.05
2023-04-16T03:58:10.185Z,14.77
2023-04-16T04:00:39.644Z,17.27
2023-04-16T04:03:06.425Z,18.60
2023-04-16T04:05:40.497Z,17.83
2023-04-16T04:10:35.703Z,17.38
2023-04-16T04:13:05.036Z,16.70
2023-04-16T04:15:32.105Z,15.98
2023-04-16T04:17:59.516Z,20.55
2023-04-16T04:20:26.346Z,15.98
2023-04-16T04:22:55.243Z,18.45
2023-04-16T04:25:21.904Z,17.80
2023-04-16T04:27:49.135Z,18.30
2023-04-16T04:30:15.818Z,19.13
2023-04-16T04:32:42.480Z,18.88
2023-04-16T04:35:12.135Z,18.67
2023-04-16T04:37:41.572Z,19.90
2023-04-16T04:40:08.850Z,19.95
2023-04-16T04:42:36.728Z,18.60
2023-04-16T04:45:05.868Z,20.58
2023-04-16T04:47:32.617Z,17.33
2023-04-16T04:49:59.322Z,20.95
2023-04-16T04:52:26.237Z,23.27
2023-04-16T04:54:55.362Z,18.92
2023-04-16T04:57:22.074Z,22.90
2023-04-16T04:59:48.710Z,19.17
2023-04-16T05:02:17.966Z,20.17
2023-04-16T05:04:44.782Z,20.23
2023-04-16T05:07:13.766Z,18.88
2023-04-16T05:09:40.517Z,21.45
2023-04-16T05:12:09.789Z,18.20
2023-04-16T05:14:36.448Z,18.30
2023-04-16T05:17:03.175Z,20.65
2023-04-16T05:19:32.110Z,19.25
2023-04-16T05:22:02.588Z,22.02
2023-04-16T05:24:29.438Z,24.88
2023-04-16T05:26:57.301Z,17.52
2023-04-16T05:29:26.612Z,17.83
2023-04-16T05:31:53.270Z,20.15
2023-04-16T05:34:19.929Z,18.85
2023-04-16T05:36:47.035Z,20.67
2023-04-16T05:39:16.874Z,20.50
2023-04-16T05:41:43.540Z,19.83
2023-04-16T05:44:10.164Z,18.90
2023-04-16T05:46:36.886Z,17.50
2023-04-16T05:49:03.705Z,19.60
2023-04-16T05:51:33.103Z,17.30
2023-04-16T05:53:59.738Z,20.60
2023-04-16T05:56:27.060Z,17.30
2023-04-16T05:58:53.692Z,16.30
2023-04-16T06:01:20.990Z,19.15
2023-04-16T06:03:47.734Z,20.30
2023-04-16T06:06:14.403Z,17.92
2023-04-16T06:08:41.072Z,28.00
2023-04-16T06:11:07.760Z,14.75
2023-04-16T06:13:34.421Z,14.10
2023-04-16T06:16:01.064Z,14.20
2023-04-16T06:18:27.784Z,13.50
2023-04-16T06:20:54.634Z,15.65
2023-04-16T06:23:24.040Z,12.70
2023-04-16T06:25:50.653Z,16.67
2023-04-16T06:28:19.508Z,13.75
2023-04-16T06:30:47.097Z,15.77
2023-04-16T06:33:13.761Z,14.77
2023-04-16T06:35:40.937Z,12.10
2023-04-16T06:38:07.852Z,13.43
2023-04-16T06:40:36.959Z,14.25
2023-04-16T06:43:08.328Z,13.75
2023-04-16T06:45:35.162Z,11.52
2023-04-16T06:48:05.023Z,12.38
2023-04-16T06:50:31.857Z,12.68
2023-04-16T06:53:00.810Z,12.68
2023-04-16T06:55:27.508Z,13.18
2023-04-16T06:57:56.750Z,13.00
2023-04-16T07:00:26.176Z,12.38
2023-04-16T07:02:58.759Z,11.93
2023-04-16T07:05:28.127Z,12.90
2023-04-16T07:07:57.494Z,12.95
2023-04-16T07:10:24.216Z,12.25
2023-04-16T07:12:50.917Z,10.77
2023-04-16T07:15:20.124Z,13.98
2023-04-16T07:17:46.785Z,13.65
2023-04-16T07:20:13.411Z,11.00
2023-04-16T07:22:40.368Z,13.70
2023-04-16T07:25:07.641Z,11.88
2023-04-16T07:27:34.276Z,12.20
2023-04-16T07:30:00.929Z,11.02
2023-04-16T07:32:27.610Z,11.10
2023-04-16T07:34:54.482Z,11.23
2023-04-16T07:37:21.087Z,12.57
2023-04-16T07:39:47.797Z,10.50
2023-04-16T07:42:14.524Z,11.70
2023-04-16T07:44:41.236Z,13.00
2023-04-16T07:47:07.925Z,12.45
2023-04-16T07:49:34.586Z,14.20
2023-04-16T07:52:01.838Z,13.38
2023-04-16T07:54:29.161Z,14.02
2023-04-16T07:56:55.929Z,16.08
2023-04-16T07:59:24.371Z,14.88
2023-04-16T08:01:53.133Z,15.55
2023-04-16T08:04:26.246Z,15.75
2023-04-16T08:06:58.056Z,16.10
2023-04-16T08:09:27.758Z,18.00
2023-04-16T08:11:54.423Z,16.25
2023-04-16T08:14:23.569Z,15.68
2023-04-16T08:16:52.425Z,15.93
2023-04-16T08:19:19.252Z,15.95
2023-04-16T08:21:46.535Z,15.27
2023-04-16T08:24:13.353Z,18.20
2023-04-16T08:26:40.522Z,15.15
2023-04-16T08:29:07.480Z,14.65
2023-04-16T08:31:36.697Z,15.82
2023-04-16T08:34:06.115Z,12.65
2023-04-16T08:36:32.868Z,14.23
2023-04-16T08:38:59.489Z,13.95
2023-04-16T08:41:30.490Z,14.25
2023-04-16T08:44:02.192Z,15.32
2023-04-16T08:46:34.161Z,15.10
2023-04-16T08:49:02.104Z,12.75
2023-04-16T08:51:33.891Z,14.18
2023-04-16T08:54:04.661Z,14.25
2023-04-16T08:56:35.905Z,16.65
2023-04-16T08:59:05.604Z,11.85
2023-04-16T09:01:41.610Z,13.40
2023-04-16T09:04:09.213Z,13.35
2023-04-16T09:06:37.182Z,12.18
2023-04-16T09:09:05.619Z,15.77
2023-04-16T09:11:32.772Z,12.65
2023-04-16T09:14:00.798Z,12.65
2023-04-16T09:16:30.659Z,12.05
2023-04-16T09:18:57.340Z,14.07
2023-04-16T09:21:24.173Z,9.35
2023-04-16T09:23:53.355Z,13.80
2023-04-16T09:26:20.824Z,14.23
2023-04-16T09:28:51.680Z,12.40
2023-04-16T09:31:20.622Z,11.65
2023-04-16T09:34:05.317Z,12.77
2023-04-16T09:36:33.147Z,13.13
2023-04-16T09:39:03.707Z,12.60
2023-04-16T09:41:39.580Z,12.25
2023-04-16T09:44:06.275Z,12.27
2023-04-16T09:46:40.895Z,11.88
2023-04-16T09:49:17.173Z,11.02
2023-04-16T09:51:47.912Z,12.75
2023-04-16T09:54:14.561Z,10.68
2023-04-16T09:56:46.442Z,12.98
2023-04-16T09:59:23.351Z,11.73
2023-04-16T10:01:50.433Z,12.43
2023-04-16T10:04:20.476Z,11.70
2023-04-16T10:07:06.172Z,12.70
2023-04-16T10:09:41.855Z,9.73
2023-04-16T10:12:12.792Z,10.15
2023-04-16T10:14:41.980Z,10.75
2023-04-16T10:17:09.588Z,12.75
2023-04-16T10:19:39.210Z,12.13
2023-04-16T10:22:08.311Z,10.18
2023-04-16T10:24:35.541Z,12.10
2023-04-16T10:27:04.676Z,8.90
2023-04-16T10:29:32.783Z,10.52
2023-04-16T10:32:01.180Z,9.18
2023-04-16T10:34:29.821Z,7.72
2023-04-16T10:36:56.583Z,9.80
2023-04-16T10:39:25.299Z,8.27
2023-04-16T10:42:13.065Z,7.97
2023-04-16T10:44:43.491Z,7.88
2023-04-16T10:47:13.290Z,9.68
2023-04-16T10:49:43.701Z,7.65
2023-04-16T10:52:18.788Z,8.13
2023-04-16T10:54:48.353Z,8.48
2023-04-16T10:57:21.081Z,7.82
2023-04-16T10:59:49.092Z,7.18
2023-04-16T11:02:18.547Z,7.80
2023-04-16T11:04:47.348Z,9.13
2023-04-16T11:07:20.392Z,7.80
2023-04-16T11:09:52.547Z,9.00
2023-04-16T11:12:39.090Z,9.93
2023-04-16T11:15:14.107Z,7.57
2023-04-16T11:17:44.909Z,8.00
2023-04-16T11:20:22.995Z,6.90
2023-04-16T11:22:51.603Z,6.90
2023-04-16T11:25:24.406Z,6.47
2023-04-16T11:27:52.259Z,7.43
2023-04-16T11:30:28.392Z,6.95
2023-04-16T11:32:58.294Z,6.40
2023-04-16T11:35:25.393Z,6.53
2023-04-16T11:37:57.060Z,7.15
2023-04-16T11:40:24.390Z,8.50
2023-04-16T11:42:53.192Z,6.70
2023-04-16T11:45:19.869Z,6.95
2023-04-16T11:47:55.479Z,5.78
2023-04-16T11:50:28.097Z,8.82
2023-04-16T11:52:56.534Z,6.45
2023-04-16T11:55:24.083Z,7.45
2023-04-16T11:57:52.370Z,6.43
2023-04-16T12:00:24.352Z,10.05
2023-04-16T12:02:55.654Z,7.40
2023-04-16T12:05:35.066Z,5.63
2023-04-16T12:08:12.336Z,5.70
2023-04-16T12:10:54.286Z,5.20
2023-04-16T12:13:23.512Z,6.07
2023-04-16T12:15:53.907Z,4.90
2023-04-16T12:18:23.015Z,5.63
2023-04-16T12:20:52.919Z,6.68
2023-04-16T12:23:24.714Z,5.70
2023-04-16T12:25:55.023Z,7.72
2023-04-16T12:28:40.270Z,6.78
2023-04-16T12:31:07.628Z,6.60
2023-04-16T12:33:34.386Z,6.63
2023-04-16T12:36:16.434Z,8.13
2023-04-16T12:38:47.587Z,8.30
2023-04-16T12:41:14.764Z,9.30
2023-04-16T12:43:41.413Z,9.68
2023-04-16T12:46:08.116Z,10.52
2023-04-16T12:48:34.960Z,9.38
2023-04-16T12:51:01.824Z,9.48
2023-04-16T12:53:28.921Z,11.48
2023-04-16T12:55:58.066Z,14.50
2023-04-16T12:58:27.196Z,14.15
2023-04-16T13:00:53.809Z,13.95
2023-04-16T13:03:21.660Z,17.73
2023-04-16T13:05:48.386Z,15.77
2023-04-16T13:08:15.397Z,13.93
2023-04-16T13:10:42.449Z,15.85
2023-04-16T13:13:09.092Z,16.63
2023-04-16T13:15:35.970Z,13.90
2023-04-16T13:18:02.740Z,14.60
2023-04-16T13:20:29.512Z,15.30
2023-04-16T13:22:56.656Z,17.48
2023-04-16T13:25:25.765Z,15.13
2023-04-16T13:27:52.638Z,15.52
2023-04-16T13:30:19.332Z,14.20
2023-04-16T13:32:46.723Z,15.13
2023-04-16T13:35:16.072Z,18.25
2023-04-16T13:37:42.729Z,17.40
2023-04-16T13:40:09.682Z,17.10
2023-04-16T13:42:36.355Z,17.85
2023-04-16T13:45:03.625Z,17.45
2023-04-16T13:47:30.583Z,19.60
2023-04-16T13:49:59.534Z,17.67
2023-04-16T13:52:28.515Z,21.23
2023-04-16T13:54:55.303Z,17.95
2023-04-16T13:57:22.206Z,18.35
2023-04-16T13:59:48.935Z,16.77
2023-04-16T14:02:20.354Z,20.13
2023-04-16T14:04:47.354Z,17.67
2023-04-16T14:07:17.148Z,19.63
2023-04-16T14:09:43.984Z,24.15
2023-04-16T14:12:10.859Z,21.48
2023-04-16T14:14:40.150Z,18.15
2023-04-16T14:17:07.599Z,19.60
2023-04-16T14:19:34.241Z,16.63
2023-04-16T14:22:00.888Z,22.50
2023-04-16T14:24:27.700Z,20.02
2023-04-16T14:26:54.477Z,18.08
2023-04-16T14:29:21.311Z,18.75
2023-04-16T14:31:48.126Z,18.02
2023-04-16T14:34:14.886Z,18.05
2023-04-16T14:36:41.986Z,17.08
2023-04-16T14:39:09.568Z,16.67
2023-04-16T14:41:36.486Z,17.42
2023-04-16T14:44:06.022Z,18.23
2023-04-16T14:46:33.633Z,17.17
2023-04-16T14:49:01.368Z,16.77
2023-04-16T14:51:28.170Z,17.80
2023-04-16T14:53:54.912Z,18.00
2023-04-16T14:56:22.004Z,20.13
2023-04-16T14:58:48.790Z,17.98
2023-04-16T15:01:18.178Z,20.08
2023-04-16T15:03:47.599Z,22.77
2023-04-16T15:06:16.640Z,20.42
2023-04-16T15:08:43.738Z,19.90
2023-04-16T15:11:10.743Z,23.48
2023-04-16T15:13:37.922Z,22.38
2023-04-16T15:16:07.474Z,23.15
2023-04-16T15:18:34.672Z,21.92
2023-04-16T15:21:01.871Z,25.02
2023-04-16T15:23:29.001Z,23.92
2023-04-16T15:25:58.801Z,23.75
2023-04-16T15:28:28.184Z,25.25
2023-04-16T15:30:56.658Z,24.40
2023-04-16T15:33:23.721Z,25.17
2023-04-16T15:35:51.649Z,25.23
2023-04-16T15:38:21.406Z,27.00
2023-04-16T15:40:50.967Z,25.83
2023-04-16T15:43:22.822Z,30.73
2023-04-16T15:45:49.936Z,24.10
2023-04-16T15:48:19.274Z,26.70
2023-04-16T15:50:46.451Z,28.88
2023-04-16T15:53:13.599Z,28.95
2023-04-16T15:55:40.664Z,23.65
2023-04-16T15:58:07.792Z,25.90
2023-04-16T16:00:34.818Z,25.70
2023-04-16T16:03:02.663Z,26.90
2023-04-16T16:05:32.401Z,26.38
2023-04-16T16:07:59.605Z,25.80
2023-04-16T16:10:26.776Z,26.80
2023-04-16T16:12:53.824Z,23.63
2023-04-16T16:15:21.085Z,24.70
2023-04-16T16:17:48.315Z,24.10
2023-04-16T16:20:15.962Z,28.58
2023-04-16T16:22:45.248Z,24.42
2023-04-16T16:25:12.158Z,26.00
2023-04-16T16:27:40.732Z,23.70
2023-04-16T16:30:10.921Z,25.88
2023-04-16T16:32:40.866Z,26.85
2023-04-16T16:35:11.601Z,23.65
2023-04-16T16:37:38.558Z,23.10
2023-04-16T16:40:05.920Z,25.77
2023-04-16T16:42:32.719Z,22.17
2023-04-16T16:45:05.298Z,27.45
2023-04-16T16:47:35.309Z,26.33
2023-04-16T16:50:03.106Z,25.20
2023-04-16T16:52:32.803Z,23.95
2023-04-16T16:54:59.545Z,25.58
2023-04-16T16:57:26.406Z,26.15
2023-04-16T16:59:54.562Z,25.75
2023-04-16T17:02:21.568Z,26.42
2023-04-16T17:04:48.423Z,23.83
2023-04-16T17:07:15.385Z,25.30
2023-04-16T17:09:42.198Z,22.83
2023-04-16T17:12:11.336Z,22.83
2023-04-16T17:14:38.120Z,21.35
2023-04-16T17:17:04.988Z,22.63
2023-04-16T17:19:31.955Z,19.48
2023-04-16T17:22:02.716Z,21.45
2023-04-16T17:24:29.702Z,22.77
2023-04-16T17:26:56.988Z,22.67
2023-04-16T17:29:26.167Z,22.80
2023-04-16T17:31:53.940Z,23.77
2023-04-16T17:34:21.297Z,19.38
2023-04-16T17:36:50.682Z,20.90
2023-04-16T17:39:17.947Z,17.67
2023-04-16T17:41:45.452Z,19.75
2023-04-16T17:44:14.787Z,17.52
2023-04-16T17:46:41.654Z,20.38
2023-04-16T17:49:08.374Z,19.30
2023-04-16T17:51:35.167Z,20.75
2023-04-16T17:54:03.415Z,21.00
2023-04-16T17:56:30.304Z,19.17
2023-04-16T17:58:57.535Z,21.33
2023-04-16T18:01:27.320Z,19.85
2023-04-16T18:03:54.686Z,18.42
2023-04-16T18:06:21.531Z,22.60
2023-04-16T18:08:48.483Z,21.35
2023-04-16T18:11:15.270Z,22.52
2023-04-16T18:13:44.677Z,20.70
2023-04-16T18:16:18.075Z,23.48
2023-04-16T18:18:47.835Z,23.65
2023-04-16T18:21:14.803Z,24.58
2023-04-16T18:23:43.842Z,20.38
2023-04-16T18:26:11.192Z,19.55
2023-04-16T18:28:39.223Z,18.73
2023-04-16T18:31:08.704Z,20.10
2023-04-16T18:33:54.206Z,18.00
2023-04-16T18:36:23.193Z,15.55
2023-04-16T18:39:00.204Z,17.23
2023-04-16T18:41:31.343Z,18.17
2023-04-16T18:43:58.557Z,22.35
2023-04-16T18:46:26.772Z,20.15
2023-04-16T18:48:53.701Z,22.30
2023-04-16T18:51:21.371Z,21.30
2023-04-16T18:53:48.558Z,26.35
2023-04-16T18:56:15.960Z,25.40
2023-04-16T18:58:43.291Z,26.70
2023-04-16T19:01:13.235Z,26.10
2023-04-16T19:03:42.635Z,27.35
2023-04-16T19:06:11.932Z,30.20
2023-04-16T19:08:38.914Z,34.13
2023-04-16T19:11:06.036Z,35.85
2023-04-16T19:13:33.393Z,35.25
2023-04-16T19:16:01.790Z,36.25
2023-04-16T19:18:28.970Z,35.97
2023-04-16T19:21:00.648Z,34.42
2023-04-16T19:23:30.872Z,36.60
2023-04-16T19:25:57.821Z,41.03
2023-04-16T19:28:25.502Z,38.92
2023-04-16T19:30:53.586Z,38.25
2023-04-16T19:33:20.876Z,40.45
2023-04-16T19:35:47.999Z,36.97
2023-04-16T19:38:17.492Z,41.50
2023-04-16T19:40:46.674Z,39.75
2023-04-16T19:43:16.434Z,43.90
2023-04-16T19:45:48.242Z,37.40
2023-04-16T19:48:15.595Z,40.70
2023-04-16T19:50:43.262Z,41.85
2023-04-16T19:53:11.176Z,41.10
2023-04-16T19:55:44.266Z,39.35
2023-04-16T19:58:11.284Z,44.30
2023-04-16T20:00:41.212Z,47.97
2023-04-16T20:03:08.464Z,43.45
2023-04-16T20:05:35.714Z,42.63
2023-04-16T20:08:05.374Z,39.97
2023-04-16T20:10:32.143Z,41.28
2023-04-16T20:12:59.095Z,43.80
2023-04-16T20:15:25.975Z,42.88
2023-04-16T20:17:53.304Z,41.55
2023-04-16T20:20:22.536Z,41.97
2023-04-16T20:22:49.731Z,44.90
2023-04-16T20:25:19.225Z,40.05
2023-04-16T20:27:46.542Z,39.65
2023-04-16T20:30:13.937Z,39.38
2023-04-16T20:32:42.890Z,41.75
2023-04-16T20:35:11.345Z,40.05
2023-04-16T20:37:38.797Z,39.58
2023-04-16T20:40:08.661Z,44.72
2023-04-16T20:42:35.531Z,44.55
2023-04-16T20:45:02.232Z,39.80
2023-04-16T20:47:28.978Z,45.28
2023-04-16T20:49:58.135Z,39.40
2023-04-16T20:52:27.305Z,42.28
2023-04-16T20:54:53.978Z,44.75
2023-04-16T20:57:21.023Z,41.70
2023-04-16T20:59:47.765Z,40.22
2023-04-16T21:02:17.544Z,45.72
2023-04-16T21:04:47.036Z,48.22
2023-04-16T21:07:13.851Z,46.13
2023-04-16T21:09:40.649Z,43.67
2023-04-16T21:12:09.763Z,51.45
2023-04-16T21:14:36.492Z,48.25
2023-04-16T21:17:05.483Z,43.55
2023-04-16T21:19:32.087Z,38.80
2023-04-16T21:21:58.724Z,52.95
2023-04-16T21:24:25.513Z,42.88
2023-04-16T21:26:52.205Z,40.38
2023-04-16T21:29:18.842Z,43.30
2023-04-16T21:31:45.894Z,41.95
2023-04-16T21:34:12.847Z,43.95
2023-04-16T21:36:42.071Z,43.28
2023-04-16T21:39:11.390Z,44.50
2023-04-16T21:41:40.543Z,42.00
2023-04-16T21:44:07.186Z,40.40
2023-04-16T21:46:34.084Z,42.70
2023-04-16T21:49:00.781Z,47.05
2023-04-16T21:51:30.080Z,40.30
2023-04-16T21:53:57.437Z,38.90
2023-04-16T21:56:27.386Z,37.92
2023-04-16T21:58:54.099Z,36.10
2023-04-16T22:01:20.926Z,33.35
2023-04-16T22:03:51.990Z,37.35
2023-04-16T22:06:20.413Z,34.58
2023-04-16T22:08:49.894Z,32.38
2023-04-16T22:11:19.264Z,35.17
2023-04-16T22:13:47.786Z,32.53
2023-04-16T22:16:15.446Z,32.83
2023-04-16T22:18:42.841Z,34.55
2023-04-16T22:21:11.815Z,35.15
2023-04-16T22:23:38.486Z,34.03
2023-04-16T22:26:08.944Z,33.13
2023-04-16T22:28:37.784Z,35.22
2023-04-16T22:31:04.540Z,33.15
2023-04-16T22:33:31.282Z,35.78
2023-04-16T22:35:59.806Z,35.35
2023-04-16T22:38:28.949Z,35.65
2023-04-16T22:40:55.744Z,35.35
2023-04-16T22:43:22.381Z,32.92
2023-04-16T22:45:49.058Z,32.50
2023-04-16T22:48:16.370Z,32.58
2023-04-16T22:50:48.465Z,34.55
2023-04-16T22:53:15.326Z,33.15
2023-04-16T22:55:42.024Z,36.60
2023-04-16T22:58:11.343Z,35.10
2023-04-16T23:00:42.774Z,31.63
2023-04-16T23:03:09.932Z,34.63
2023-04-16T23:05:36.681Z,31.83
2023-04-16T23:08:03.350Z,34.85
2023-04-16T23:10:30.146Z,33.60
2023-04-16T23:12:56.836Z,33.05
2023-04-16T23:15:23.549Z,36.72
2023-04-16T23:17:52.596Z,33.97
2023-04-16T23:20:19.326Z,36.00
2023-04-16T23:22:46.668Z,31.45
2023-04-16T23:25:13.359Z,31.40
2023-04-16T23:27:40.004Z,32.60
2023-04-16T23:30:07.297Z,30.58
2023-04-16T23:32:34.236Z,31.88
2023-04-16T23:35:01.187Z,35.40
2023-04-16T23:37:27.877Z,33.00
2023-04-16T23:39:57.222Z,32.72
2023-04-16T23:42:23.873Z,32.38
2023-04-16T23:44:50.728Z,30.65
2023-04-16T23:47:17.372Z,31.33
2023-04-16T23:49:44.013Z,37.25
2023-04-16T23:52:10.783Z,33.00
2023-04-16T23:54:37.430Z,31.05
2023-04-16T23:57:04.182Z,29.10
2023-04-16T23:59:33.277Z,36.40
